KACT/ACT METAR and TAF weather

Enter ICAO airport designator
Station Type Date Time Source
KACT METAR 2022/10/01 06:51 UTC NOAA

KACT 010651Z AUTO 04004KT 10SM CLR 13/05 A3000 RMK AO2 SLP152 T01280050


Station Type Date Time Source
KACT Decoded METAR 2022/10/01 06:51 UTC NOAA

WACO REGIONAL AIRPORT, TX, United States (KACT) 31-36N 97-13W 151M
Oct 01, 2022 - 02:51 AM EDT / 2022.10.01 0651 UTC
Wind: from the NE (040 degrees) at 5 MPH (4 KT):0
Visibility: 10 mile(s):0
Sky conditions: clear
Temperature: 55.0 F (12.8 C)
Dew Point: 41.0 F (5.0 C)
Relative Humidity: 59%
Pressure (altimeter): 30 in. Hg (1015 hPa)
ob: KACT 010651Z AUTO 04004KT 10SM CLR 13/05 A3000 RMK AO2 SLP152 T01280050
cycle: 7

Station Type Date Time Source
KACT TAF 2022/10/01 06:22 UTC NOAA

TAF KACT 010520Z 0106/0206 00000KT P6SM SKC
FM011900 06008KT P6SM SKC

Example: see airport list